createdAt,value
2023-05-18T00:02:24.116Z,35.16
2023-05-18T00:04:52.256Z,35.05
2023-05-18T00:07:20.305Z,35.21
2023-05-18T00:09:48.310Z,35.14
2023-05-18T00:12:16.539Z,35.13
2023-05-18T00:14:44.679Z,35.22
2023-05-18T00:17:15.008Z,35.28
2023-05-18T00:19:46.875Z,35.14
2023-05-18T00:22:20.825Z,35.04
2023-05-18T00:24:49.006Z,35.16
2023-05-18T00:27:16.974Z,35.20
2023-05-18T00:29:44.927Z,35.10
2023-05-18T00:32:13.478Z,35.35
2023-05-18T00:34:41.931Z,35.04
2023-05-18T00:37:09.989Z,35.02
2023-05-18T00:39:37.962Z,35.13
2023-05-18T00:42:06.282Z,35.18
2023-05-18T00:44:34.210Z,35.23
2023-05-18T00:47:02.330Z,35.22
2023-05-18T00:49:30.554Z,35.20
2023-05-18T00:51:58.735Z,35.01
2023-05-18T00:54:27.038Z,35.17
2023-05-18T00:56:55.027Z,35.21
2023-05-18T00:59:23.271Z,35.19
2023-05-18T01:01:51.610Z,35.23
2023-05-18T01:04:21.743Z,35.17
2023-05-18T01:06:50.089Z,35.21
2023-05-18T01:09:18.061Z,35.18
2023-05-18T01:11:57.350Z,35.25
2023-05-18T01:14:35.276Z,35.19
2023-05-18T01:17:13.081Z,35.13
2023-05-18T01:20:01.275Z,34.97
2023-05-18T01:22:48.208Z,35.15
2023-05-18T01:25:54.401Z,35.28
2023-05-18T01:28:28.592Z,35.10
2023-05-18T01:30:56.784Z,35.32
2023-05-18T01:33:25.424Z,35.18
2023-05-18T01:35:53.586Z,35.05
2023-05-18T01:38:24.213Z,34.98
2023-05-18T01:41:03.096Z,35.20
2023-05-18T01:43:35.336Z,35.24
2023-05-18T01:46:23.194Z,35.16
2023-05-18T01:48:55.184Z,35.07
2023-05-18T01:51:26.175Z,35.19
2023-05-18T01:54:04.441Z,35.07
2023-05-18T01:56:33.193Z,35.03
2023-05-18T01:59:01.177Z,35.24
2023-05-18T02:01:29.585Z,35.16
2023-05-18T02:03:58.142Z,35.16
2023-05-18T02:06:26.209Z,35.08
2023-05-18T02:08:55.091Z,35.01
2023-05-18T02:11:23.072Z,35.08
2023-05-18T02:13:52.209Z,35.06
2023-05-18T02:16:20.274Z,34.98
2023-05-18T02:18:49.374Z,35.08
2023-05-18T02:21:17.485Z,34.97
2023-05-18T02:23:45.814Z,34.97
2023-05-18T02:26:15.334Z,35.02
2023-05-18T02:28:43.622Z,35.06
2023-05-18T02:31:14.464Z,34.85
2023-05-18T02:33:42.530Z,34.99
2023-05-18T02:36:12.418Z,35.04
2023-05-18T02:38:42.393Z,35.08
2023-05-18T02:41:12.204Z,34.81
2023-05-18T02:43:40.585Z,34.89
2023-05-18T02:46:09.650Z,34.99
2023-05-18T02:48:38.591Z,34.95
2023-05-18T02:51:06.710Z,34.78
2023-05-18T02:53:35.169Z,34.86
2023-05-18T02:56:08.230Z,34.71
2023-05-18T02:58:44.865Z,34.93
2023-05-18T03:01:19.895Z,34.69
2023-05-18T03:03:53.141Z,34.79
2023-05-18T03:06:26.603Z,34.68
2023-05-18T03:08:55.542Z,34.51
2023-05-18T03:11:29.040Z,34.44
2023-05-18T03:13:57.099Z,34.61
2023-05-18T03:16:28.840Z,34.33
2023-05-18T03:18:59.426Z,34.49
2023-05-18T03:21:34.015Z,34.36
2023-05-18T03:24:05.450Z,34.27
2023-05-18T03:26:35.739Z,34.12
2023-05-18T03:29:03.855Z,34.25
2023-05-18T03:31:32.012Z,34.14
2023-05-18T03:34:00.776Z,33.93
2023-05-18T03:36:28.820Z,34.04
2023-05-18T03:38:56.895Z,33.96
2023-05-18T03:41:25.310Z,33.99
2023-05-18T03:43:54.518Z,33.89
2023-05-18T03:46:23.270Z,33.94
2023-05-18T03:48:51.720Z,33.99
2023-05-18T03:51:22.124Z,34.04
2023-05-18T03:53:50.116Z,33.73
2023-05-18T03:56:18.481Z,33.78
2023-05-18T03:58:46.416Z,33.83
2023-05-18T04:01:14.499Z,33.86
2023-05-18T04:03:43.938Z,33.94
2023-05-18T04:06:12.176Z,33.75
2023-05-18T04:08:40.518Z,33.98
2023-05-18T04:11:08.511Z,33.92
2023-05-18T04:13:38.101Z,34.05
2023-05-18T04:16:07.378Z,33.94
2023-05-18T04:18:36.394Z,33.80
2023-05-18T04:21:06.559Z,33.94
2023-05-18T04:23:39.220Z,34.03
2023-05-18T04:26:08.999Z,33.95
2023-05-18T04:28:40.053Z,34.02
2023-05-18T04:31:08.097Z,33.97
2023-05-18T04:33:36.117Z,34.09
2023-05-18T04:36:05.091Z,33.82
2023-05-18T04:38:34.673Z,34.00
2023-05-18T04:41:07.533Z,33.82
2023-05-18T04:43:36.756Z,33.96
2023-05-18T04:46:07.435Z,34.16
2023-05-18T04:48:36.482Z,34.31
2023-05-18T04:51:06.245Z,34.51
2023-05-18T04:53:34.630Z,34.41
2023-05-18T04:56:02.644Z,34.16
2023-05-18T04:58:30.865Z,33.89
2023-05-18T05:00:58.948Z,33.51
2023-05-18T05:03:28.594Z,33.36
2023-05-18T05:05:57.249Z,33.55
2023-05-18T05:08:25.924Z,33.73
2023-05-18T05:10:53.975Z,33.98
2023-05-18T05:13:22.129Z,33.81
2023-05-18T05:15:50.383Z,33.89
2023-05-18T05:18:18.575Z,33.92
2023-05-18T05:20:46.762Z,33.89
2023-05-18T05:23:15.089Z,33.89
2023-05-18T05:25:44.188Z,33.90
2023-05-18T05:28:12.362Z,33.85
2023-05-18T05:30:40.914Z,33.87
2023-05-18T05:33:09.007Z,33.62
2023-05-18T05:35:38.654Z,33.72
2023-05-18T05:38:07.172Z,33.67
2023-05-18T05:40:36.045Z,33.71
2023-05-18T05:43:07.584Z,33.68
2023-05-18T05:45:35.891Z,33.75
2023-05-18T05:48:07.405Z,33.74
2023-05-18T05:50:36.413Z,33.76
2023-05-18T05:53:06.314Z,33.59
2023-05-18T05:55:42.011Z,33.67
2023-05-18T05:58:14.008Z,33.08
2023-05-18T06:00:46.801Z,32.56
2023-05-18T06:03:16.207Z,31.93
2023-05-18T06:05:46.676Z,32.21
2023-05-18T06:08:17.192Z,32.18
2023-05-18T06:10:45.973Z,32.30
2023-05-18T06:13:14.347Z,32.45
2023-05-18T06:15:53.272Z,32.66
2023-05-18T06:18:21.642Z,32.80
2023-05-18T06:20:51.364Z,32.96
2023-05-18T06:23:22.796Z,32.92
2023-05-18T06:26:13.548Z,33.05
2023-05-18T06:28:47.309Z,33.16
2023-05-18T06:31:47.630Z,33.22
2023-05-18T06:34:21.881Z,33.54
2023-05-18T06:36:49.800Z,33.31
2023-05-18T06:39:18.003Z,33.50
2023-05-18T06:41:46.304Z,33.63
2023-05-18T06:44:22.769Z,33.79
2023-05-18T06:47:23.077Z,34.06
2023-05-18T06:49:51.855Z,34.20
2023-05-18T06:52:24.419Z,34.36
2023-05-18T06:54:54.522Z,34.45
2023-05-18T06:57:22.590Z,34.71
2023-05-18T06:59:53.821Z,34.58
2023-05-18T07:02:21.951Z,33.34
2023-05-18T07:04:50.005Z,33.12
2023-05-18T07:07:18.081Z,33.21
2023-05-18T07:09:46.309Z,33.15
2023-05-18T07:12:14.312Z,33.24
2023-05-18T07:14:42.433Z,33.17
2023-05-18T07:17:10.463Z,33.32
2023-05-18T07:19:38.612Z,33.30
2023-05-18T07:22:07.750Z,33.20
2023-05-18T07:24:35.971Z,33.27
2023-05-18T07:27:04.389Z,33.40
2023-05-18T07:29:32.378Z,33.34
2023-05-18T07:32:00.705Z,33.26
2023-05-18T07:34:29.048Z,33.30
2023-05-18T07:36:57.912Z,33.28
2023-05-18T07:39:29.447Z,33.32
2023-05-18T07:41:57.535Z,33.36
2023-05-18T07:44:26.012Z,33.32
2023-05-18T07:46:54.280Z,33.44
2023-05-18T07:49:26.105Z,33.40
2023-05-18T07:51:54.326Z,33.27
2023-05-18T07:54:22.707Z,33.36
2023-05-18T07:56:51.806Z,33.22
2023-05-18T07:59:20.194Z,33.11
2023-05-18T08:01:49.370Z,32.30
2023-05-18T08:04:17.504Z,31.17
2023-05-18T08:06:45.638Z,31.06
2023-05-18T08:09:13.700Z,30.72
2023-05-18T08:11:42.740Z,30.91
2023-05-18T08:14:10.689Z,30.98
2023-05-18T08:16:39.358Z,30.94
2023-05-18T08:19:07.584Z,31.12
2023-05-18T08:21:35.931Z,31.10
2023-05-18T08:24:04.176Z,31.08
2023-05-18T08:26:32.321Z,31.03
2023-05-18T08:29:00.414Z,30.99
2023-05-18T08:31:28.491Z,30.98
2023-05-18T08:33:56.480Z,31.03
2023-05-18T08:36:24.561Z,30.94
2023-05-18T08:38:53.710Z,30.97
2023-05-18T08:41:32.589Z,30.99
2023-05-18T08:44:06.761Z,30.89
2023-05-18T08:46:36.033Z,30.99
2023-05-18T08:49:05.078Z,30.97
2023-05-18T08:51:37.241Z,30.67
2023-05-18T08:54:06.393Z,30.80
2023-05-18T08:56:34.731Z,30.46
2023-05-18T08:59:05.368Z,30.46
2023-05-18T09:01:33.372Z,30.75
2023-05-18T09:04:01.565Z,30.73
2023-05-18T09:06:29.793Z,30.92
2023-05-18T09:08:58.658Z,30.91
2023-05-18T09:11:27.247Z,31.09
2023-05-18T09:13:55.904Z,31.15
2023-05-18T09:16:24.742Z,30.78
2023-05-18T09:18:53.721Z,30.66
2023-05-18T09:21:21.763Z,30.88
2023-05-18T09:23:50.855Z,31.00
2023-05-18T09:26:22.667Z,31.05
2023-05-18T09:28:53.896Z,31.19
2023-05-18T09:31:24.555Z,31.21
2023-05-18T09:33:53.197Z,31.36
2023-05-18T09:36:25.668Z,31.46
2023-05-18T09:38:53.796Z,31.62
2023-05-18T09:41:21.985Z,31.82
2023-05-18T09:43:51.540Z,31.98
2023-05-18T09:46:21.126Z,32.11
2023-05-18T09:48:51.704Z,32.17
2023-05-18T09:51:21.946Z,32.47
2023-05-18T09:53:54.550Z,32.76
2023-05-18T09:56:23.225Z,33.04
2023-05-18T09:58:51.467Z,33.24
2023-05-18T10:01:20.090Z,33.29
2023-05-18T10:03:49.918Z,33.20
2023-05-18T10:06:20.193Z,33.26
2023-05-18T10:08:48.694Z,33.08
2023-05-18T10:11:19.476Z,33.04
2023-05-18T10:13:47.683Z,33.05
2023-05-18T10:16:16.050Z,33.09
2023-05-18T10:18:44.292Z,33.10
2023-05-18T10:21:12.789Z,32.98
2023-05-18T10:23:40.884Z,32.92
2023-05-18T10:26:10.230Z,32.89
2023-05-18T10:28:41.591Z,32.90
2023-05-18T10:31:09.612Z,32.99
2023-05-18T10:33:38.183Z,32.85
2023-05-18T10:36:06.789Z,32.78
2023-05-18T10:38:34.889Z,32.76
2023-05-18T10:41:02.976Z,32.73
2023-05-18T10:43:31.078Z,32.55
2023-05-18T10:46:00.630Z,32.40
2023-05-18T10:48:29.806Z,32.46
2023-05-18T10:50:58.074Z,32.31
2023-05-18T10:53:30.010Z,32.34
2023-05-18T10:55:58.081Z,32.28
2023-05-18T10:58:27.619Z,32.15
2023-05-18T11:00:58.181Z,32.15
2023-05-18T11:03:27.205Z,32.01
2023-05-18T11:06:10.348Z,32.03
2023-05-18T11:08:47.924Z,32.02
2023-05-18T11:11:18.640Z,31.91
2023-05-18T11:13:50.739Z,31.77
2023-05-18T11:16:19.558Z,31.81
2023-05-18T11:18:49.833Z,31.63
2023-05-18T11:21:19.663Z,31.68
2023-05-18T11:24:13.627Z,31.73
2023-05-18T11:26:42.477Z,31.68
2023-05-18T11:29:38.328Z,31.43
2023-05-18T11:32:29.385Z,31.46
2023-05-18T11:34:59.175Z,31.45
2023-05-18T11:37:39.236Z,31.43
2023-05-18T11:40:14.260Z,31.45
2023-05-18T11:42:42.544Z,31.40
2023-05-18T11:45:11.782Z,31.46
2023-05-18T11:47:43.078Z,31.42
2023-05-18T11:50:14.898Z,31.29
2023-05-18T11:52:49.619Z,31.20
2023-05-18T11:55:19.495Z,31.22
2023-05-18T11:57:50.027Z,31.15
2023-05-18T12:00:18.588Z,31.04
2023-05-18T12:02:47.684Z,31.12
2023-05-18T12:05:16.274Z,31.17
2023-05-18T12:07:45.169Z,31.12
2023-05-18T12:10:17.374Z,31.15
2023-05-18T12:12:48.123Z,31.17
2023-05-18T12:15:17.439Z,31.06
2023-05-18T12:17:47.561Z,31.05
2023-05-18T12:20:16.812Z,31.09
2023-05-18T12:22:46.359Z,31.09
2023-05-18T12:25:14.375Z,31.11
2023-05-18T12:27:43.985Z,31.04
2023-05-18T12:30:13.869Z,31.11
2023-05-18T12:32:46.548Z,31.04
2023-05-18T12:35:14.702Z,31.03
2023-05-18T12:37:45.071Z,30.98
2023-05-18T12:40:14.396Z,30.95
2023-05-18T12:43:03.311Z,31.01
2023-05-18T12:45:32.681Z,31.02
2023-05-18T12:48:07.696Z,31.08
2023-05-18T12:50:37.210Z,31.03
2023-05-18T12:53:05.787Z,31.04
2023-05-18T12:55:34.841Z,31.02
2023-05-18T12:58:07.394Z,31.01
2023-05-18T13:00:36.777Z,31.05
2023-05-18T13:03:15.362Z,30.96
2023-05-18T13:05:45.739Z,31.01
2023-05-18T13:08:22.331Z,31.05
2023-05-18T13:11:01.266Z,31.01
2023-05-18T13:13:33.955Z,31.08
2023-05-18T13:16:02.240Z,31.08
2023-05-18T13:18:30.615Z,31.07
2023-05-18T13:20:58.802Z,31.07
2023-05-18T13:23:27.908Z,31.07
2023-05-18T13:25:58.690Z,31.10
2023-05-18T13:28:27.669Z,31.04
2023-05-18T13:30:55.864Z,31.01
2023-05-18T13:33:24.241Z,31.13
2023-05-18T13:35:52.429Z,31.14
2023-05-18T13:38:20.409Z,31.08
2023-05-18T13:40:48.637Z,31.04
2023-05-18T13:43:16.656Z,31.16
2023-05-18T13:45:44.777Z,31.01
2023-05-18T13:48:14.482Z,31.02
2023-05-18T13:50:42.873Z,31.11
2023-05-18T13:53:11.232Z,31.14
2023-05-18T13:55:39.488Z,31.10
2023-05-18T13:58:08.185Z,31.10
2023-05-18T14:00:36.953Z,31.07
2023-05-18T14:03:05.092Z,31.16
2023-05-18T14:05:33.050Z,31.16
2023-05-18T14:08:01.674Z,31.17
2023-05-18T14:10:30.215Z,31.12
2023-05-18T14:12:58.354Z,31.02
2023-05-18T14:15:26.880Z,31.01
2023-05-18T14:17:55.015Z,31.00
2023-05-18T14:20:23.154Z,31.20
2023-05-18T14:22:51.245Z,31.24
2023-05-18T14:25:20.100Z,31.16
2023-05-18T14:27:48.060Z,31.17
2023-05-18T14:30:16.366Z,31.06
2023-05-18T14:32:44.471Z,31.20
2023-05-18T14:35:12.585Z,31.22
2023-05-18T14:37:40.890Z,31.24
2023-05-18T14:40:10.889Z,31.09
2023-05-18T14:42:39.322Z,31.32
2023-05-18T14:45:08.012Z,31.21
2023-05-18T14:47:36.064Z,31.12
2023-05-18T14:50:04.239Z,31.21
2023-05-18T14:52:32.392Z,31.22
2023-05-18T14:55:00.686Z,31.29
2023-05-18T14:57:29.150Z,31.24
2023-05-18T14:59:58.312Z,31.28
2023-05-18T15:02:26.392Z,31.23
2023-05-18T15:04:54.453Z,31.27
2023-05-18T15:07:22.493Z,31.25
2023-05-18T15:09:50.643Z,31.27
2023-05-18T15:12:19.847Z,31.29
2023-05-18T15:14:47.833Z,31.28
2023-05-18T15:17:17.934Z,31.24
2023-05-18T15:19:47.061Z,31.39
2023-05-18T15:22:15.690Z,31.19
2023-05-18T15:24:43.965Z,31.32
2023-05-18T15:27:12.171Z,31.28
2023-05-18T15:29:40.300Z,31.18
2023-05-18T15:32:08.702Z,31.27
2023-05-18T15:34:37.089Z,31.22
2023-05-18T15:37:05.061Z,31.26
2023-05-18T15:39:33.160Z,31.29
2023-05-18T15:42:01.311Z,31.23
2023-05-18T15:44:29.889Z,31.21
2023-05-18T15:46:57.907Z,31.20
2023-05-18T15:49:26.255Z,31.31
2023-05-18T15:51:54.292Z,31.24
2023-05-18T15:54:22.327Z,31.40
2023-05-18T15:56:50.591Z,31.18
2023-05-18T15:59:18.609Z,31.32
2023-05-18T16:01:46.823Z,31.35
2023-05-18T16:04:15.002Z,31.37
2023-05-18T16:06:43.091Z,31.27
2023-05-18T16:09:11.262Z,31.27
2023-05-18T16:11:39.311Z,31.47
2023-05-18T16:14:07.434Z,31.48
2023-05-18T16:16:35.661Z,31.31
2023-05-18T16:19:05.550Z,31.36
2023-05-18T16:21:33.709Z,31.37
2023-05-18T16:24:02.854Z,31.38
2023-05-18T16:26:32.408Z,31.33
2023-05-18T16:29:00.562Z,31.28
2023-05-18T16:31:28.650Z,31.34
2023-05-18T16:33:57.063Z,31.28
2023-05-18T16:36:26.192Z,31.34
2023-05-18T16:38:54.895Z,31.29
2023-05-18T16:41:22.958Z,31.26
2023-05-18T16:43:50.971Z,31.28
2023-05-18T16:46:20.155Z,31.27
2023-05-18T16:48:48.196Z,31.36
2023-05-18T16:51:16.452Z,31.31
2023-05-18T16:53:44.610Z,31.36
2023-05-18T16:56:12.665Z,31.30
2023-05-18T16:58:41.004Z,31.36
2023-05-18T17:01:19.248Z,31.31
2023-05-18T17:03:54.519Z,31.34
2023-05-18T17:06:22.680Z,31.40
2023-05-18T17:08:57.657Z,31.34
2023-05-18T17:11:27.059Z,31.38
2023-05-18T17:13:55.328Z,31.46
2023-05-18T17:16:23.649Z,31.49
2023-05-18T17:18:53.521Z,31.32
2023-05-18T17:21:21.612Z,31.41
2023-05-18T17:23:49.645Z,31.44
2023-05-18T17:26:17.654Z,31.47
2023-05-18T17:28:46.056Z,31.45
2023-05-18T17:31:15.112Z,31.38
2023-05-18T17:33:47.369Z,31.46
2023-05-18T17:36:18.962Z,31.53
2023-05-18T17:38:47.474Z,31.41
2023-05-18T17:41:15.843Z,31.52
2023-05-18T17:43:43.901Z,31.49
2023-05-18T17:46:11.900Z,31.46
2023-05-18T17:48:40.126Z,31.54
2023-05-18T17:51:08.105Z,31.60
2023-05-18T17:53:41.984Z,31.56
2023-05-18T17:56:10.943Z,31.58
2023-05-18T17:58:39.749Z,31.48
2023-05-18T18:01:09.202Z,31.59
2023-05-18T18:03:37.702Z,31.52
2023-05-18T18:06:06.754Z,31.57
2023-05-18T18:08:34.903Z,31.64
2023-05-18T18:11:03.258Z,31.62
2023-05-18T18:13:31.310Z,31.55
2023-05-18T18:15:59.282Z,31.52
2023-05-18T18:18:27.875Z,31.57
2023-05-18T18:20:55.891Z,31.51
2023-05-18T18:23:23.941Z,31.54
2023-05-18T18:25:52.027Z,31.61
2023-05-18T18:28:20.648Z,31.61
2023-05-18T18:30:49.156Z,31.56
2023-05-18T18:33:17.270Z,31.67
2023-05-18T18:35:45.554Z,31.65
2023-05-18T18:38:13.512Z,31.63
2023-05-18T18:40:41.529Z,31.54
2023-05-18T18:43:09.574Z,31.55
2023-05-18T18:45:37.588Z,31.53
2023-05-18T18:48:06.672Z,31.58
2023-05-18T18:50:34.798Z,31.63
2023-05-18T18:53:02.872Z,31.52
2023-05-18T18:55:31.330Z,31.56
2023-05-18T18:58:01.395Z,31.53
2023-05-18T19:00:29.538Z,31.65
2023-05-18T19:02:57.599Z,31.63
2023-05-18T19:05:25.965Z,31.60
2023-05-18T19:07:55.885Z,31.64
2023-05-18T19:10:23.964Z,31.76
2023-05-18T19:12:51.944Z,31.70
2023-05-18T19:15:21.462Z,31.73
2023-05-18T19:17:53.565Z,31.73
2023-05-18T19:20:21.783Z,31.80
2023-05-18T19:22:49.921Z,31.77
2023-05-18T19:25:17.989Z,31.92
2023-05-18T19:27:46.052Z,31.84
2023-05-18T19:30:16.687Z,31.77
2023-05-18T19:32:44.724Z,31.92
2023-05-18T19:35:12.975Z,31.83
2023-05-18T19:37:41.001Z,31.83
2023-05-18T19:40:09.352Z,31.91
2023-05-18T19:42:37.497Z,31.95
2023-05-18T19:45:06.025Z,31.97
2023-05-18T19:47:34.255Z,31.96
2023-05-18T19:50:02.825Z,32.06
2023-05-18T19:52:31.819Z,31.94
2023-05-18T19:55:00.325Z,32.05
2023-05-18T19:57:28.804Z,31.93
2023-05-18T19:59:58.045Z,32.04
2023-05-18T20:02:26.193Z,32.13
2023-05-18T20:04:54.575Z,32.11
2023-05-18T20:07:22.727Z,32.18
2023-05-18T20:09:53.225Z,32.23
2023-05-18T20:12:21.253Z,32.14
2023-05-18T20:14:49.327Z,32.13
2023-05-18T20:17:17.920Z,32.17
2023-05-18T20:19:50.574Z,32.16
2023-05-18T20:22:19.120Z,32.16
2023-05-18T20:24:47.041Z,32.05
2023-05-18T20:27:15.416Z,32.24
2023-05-18T20:29:43.707Z,32.20
2023-05-18T20:32:11.778Z,32.15
2023-05-18T20:34:41.481Z,32.09
2023-05-18T20:37:11.060Z,32.15
2023-05-18T20:39:40.624Z,32.13
2023-05-18T20:42:12.642Z,32.03
2023-05-18T20:44:42.686Z,32.14
2023-05-18T20:47:11.363Z,32.19
2023-05-18T20:49:39.544Z,32.30
2023-05-18T20:52:07.562Z,32.20
2023-05-18T20:54:35.633Z,32.16
2023-05-18T20:57:04.009Z,32.23
2023-05-18T20:59:31.978Z,32.14
2023-05-18T21:02:00.045Z,32.11
2023-05-18T21:04:28.306Z,32.17
2023-05-18T21:06:56.350Z,32.34
2023-05-18T21:09:24.424Z,32.19
2023-05-18T21:11:52.763Z,32.25
2023-05-18T21:14:20.984Z,32.29
2023-05-18T21:16:49.065Z,32.24
2023-05-18T21:19:17.419Z,32.24
2023-05-18T21:21:45.478Z,32.34
2023-05-18T21:24:13.659Z,32.26
2023-05-18T21:26:42.067Z,32.36
2023-05-18T21:29:10.141Z,32.38
2023-05-18T21:31:38.194Z,32.30
2023-05-18T21:34:06.736Z,32.27
2023-05-18T21:36:35.076Z,32.37
2023-05-18T21:39:04.375Z,32.29
2023-05-18T21:41:33.559Z,32.58
2023-05-18T21:44:01.608Z,32.47
2023-05-18T21:46:30.128Z,32.49
2023-05-18T21:48:58.513Z,32.52
2023-05-18T21:51:26.785Z,32.64
2023-05-18T21:53:54.778Z,32.48
2023-05-18T21:56:23.409Z,32.47
2023-05-18T21:58:51.637Z,32.70
2023-05-18T22:01:21.649Z,32.64
2023-05-18T22:03:52.530Z,32.71
2023-05-18T22:06:20.656Z,32.72
2023-05-18T22:08:48.822Z,32.72
2023-05-18T22:11:16.919Z,32.72
2023-05-18T22:13:44.958Z,32.83
2023-05-18T22:16:12.919Z,32.80
2023-05-18T22:18:41.037Z,32.90
2023-05-18T22:21:09.055Z,32.82
2023-05-18T22:23:38.857Z,32.85
2023-05-18T22:26:07.203Z,32.96
2023-05-18T22:28:35.251Z,32.91
2023-05-18T22:31:03.622Z,32.91
2023-05-18T22:33:31.670Z,33.08
2023-05-18T22:35:59.699Z,33.04
2023-05-18T22:38:27.837Z,33.04
2023-05-18T22:40:56.125Z,33.07
2023-05-18T22:43:24.376Z,33.02
2023-05-18T22:45:52.630Z,33.01
2023-05-18T22:48:20.765Z,33.08
2023-05-18T22:50:48.823Z,33.09
2023-05-18T22:53:16.811Z,33.03
2023-05-18T22:55:44.701Z,33.14
2023-05-18T22:58:12.690Z,33.08
2023-05-18T23:00:41.100Z,33.07
2023-05-18T23:03:09.111Z,33.14
2023-05-18T23:05:41.339Z,33.09
2023-05-18T23:08:10.469Z,33.13
2023-05-18T23:10:38.595Z,33.05
2023-05-18T23:13:06.525Z,33.15
2023-05-18T23:15:34.574Z,33.06
2023-05-18T23:18:02.741Z,33.07
2023-05-18T23:20:34.708Z,33.09
2023-05-18T23:23:02.908Z,33.08
2023-05-18T23:25:30.904Z,33.16
2023-05-18T23:27:58.986Z,33.18
2023-05-18T23:30:27.139Z,33.11
2023-05-18T23:32:56.716Z,33.23
2023-05-18T23:35:25.292Z,33.26
2023-05-18T23:37:54.809Z,33.22
2023-05-18T23:40:22.906Z,33.26
2023-05-18T23:42:51.478Z,33.28
2023-05-18T23:45:19.836Z,33.29
2023-05-18T23:47:48.379Z,33.25
2023-05-18T23:50:17.161Z,33.32
2023-05-18T23:52:45.117Z,33.37
2023-05-18T23:55:13.419Z,33.29
2023-05-18T23:57:41.690Z,33.22
